Main page
METAR-TAF:

METAR-TAF

Airports :

Dehradun Airport

Dehradun, India

latitude: 30-11-23N, longitude: 78-10-49E, elevation: 558 m

Current weather observation

The report was made 29 minutes ago, at 05:30 UTC
Wind 4 kt from the South
Temperature 26°C
Humidity 89%
Pressure 1008 hPa
Visibility: 2000 m
Scattered clouds at a height of 1200 ft
Broken clouds at a height of 2500 ft
Overcast at a height of 6000 ft
light rain

METAR: VIDN 250530Z 18004KT 2000 -RA SCT012 BKN025 FEWCB040 OVC060 26/24 Q1008

Time: 11:29 (05:59 UTC)

Forecast

The report was made 59 minutes ago, at 05:00 UTC
Forecast valid from 25 at 06 UTC to 25 at 15 UTC
Visibility: 3000 m
Broken clouds at a height of 3000 ft
Overcast at a height of 6000 ft
mist, light rain
Becoming
from 25 at 09 UTC to 25 at 15 UTC
Visibility: 1500 m
Few clouds at a height of 3500 ft, Cumulonimbus.
Overcast at a height of 8000 ft
thunderstorm, rain

TAF: VIDN 250500Z 2506/2515 00000 3000 BR -RA BKN030 OVC060 BECMG 2509/2515 1500 TSRA FEW035CB OVC080

Weather observations and forecasts of more than 4000 airports (METAR and TAF reports).

The available stations are represented by yellow and red dots on the map.

Hover mouse over dot to see the name of the station.

Then click to see weather observations and forecasts.

To change the map : click on the green buttons with a black cross to zoom in, on the green button with a dash to zoom out, or on the green arrows for adjacent maps.


METAR-TAF: